Terminal Aerodrome Forecast
Issued by NWS

Current Version | Previous Version | Graphics & Text | Print | Product List | Glossary On
Versions: 1 2 3 4 5 6 7 8 9 10 11 12 13 14 15 16 17 18
688
FTUS41 KPBZ 151728
TAFHLG
TAF
KHLG 151728Z 1518/1618 22010G20KT P6SM BKN030
     FM152100 25020G30KT 5SM -SHRA OVC035
     FM152300 29015G25KT P6SM VCSH BKN025
     FM160400 30012KT P6SM BKN025=

USA.gov is the U.S. government's official web portal to all federal, state and local government web resources and services.